createdAt,value
2022-08-30T00:00:38.979Z,23.92
2022-08-30T00:03:09.101Z,24.01
2022-08-30T00:05:42.075Z,24.03
2022-08-30T00:08:14.334Z,24.16
2022-08-30T00:10:43.338Z,24.26
2022-08-30T00:13:14.767Z,24.28
2022-08-30T00:15:45.082Z,24.25
2022-08-30T00:18:13.017Z,24.39
2022-08-30T00:20:40.706Z,24.19
2022-08-30T00:23:09.714Z,24.01
2022-08-30T00:25:38.947Z,24.02
2022-08-30T00:28:09.904Z,23.94
2022-08-30T00:30:39.060Z,23.57
2022-08-30T00:33:08.492Z,23.22
2022-08-30T00:35:36.863Z,23.06
2022-08-30T00:38:09.995Z,22.97
2022-08-30T00:40:41.897Z,22.90
2022-08-30T00:43:19.302Z,22.88
2022-08-30T00:45:47.602Z,22.93
2022-08-30T00:48:16.766Z,22.81
2022-08-30T00:50:53.858Z,22.83
2022-08-30T00:53:28.533Z,22.84
2022-08-30T00:56:00.103Z,22.66
2022-08-30T00:58:32.504Z,22.64
2022-08-30T01:01:04.264Z,22.66
2022-08-30T01:03:37.159Z,22.71
2022-08-30T01:06:07.841Z,23.18
2022-08-30T01:08:36.752Z,23.37
2022-08-30T01:11:08.622Z,23.54
2022-08-30T01:13:38.021Z,23.48
2022-08-30T01:16:08.062Z,23.37
2022-08-30T01:18:37.748Z,23.55
2022-08-30T01:21:35.248Z,23.49
2022-08-30T01:24:04.899Z,23.35
2022-08-30T01:26:37.469Z,23.28
2022-08-30T01:29:09.260Z,23.33
2022-08-30T01:31:38.816Z,23.46
2022-08-30T01:34:08.478Z,23.53
2022-08-30T01:36:45.047Z,23.54
2022-08-30T01:39:18.339Z,23.63
2022-08-30T01:41:46.626Z,23.70
2022-08-30T01:44:16.091Z,23.66
2022-08-30T01:46:47.295Z,23.59
2022-08-30T01:49:27.780Z,23.50
2022-08-30T01:52:01.007Z,23.19
2022-08-30T01:54:38.244Z,22.91
2022-08-30T01:57:08.879Z,22.74
2022-08-30T01:59:41.219Z,22.62
2022-08-30T02:02:11.032Z,22.77
2022-08-30T02:04:40.401Z,22.53
2022-08-30T02:07:10.019Z,22.39
2022-08-30T02:09:39.052Z,22.27
2022-08-30T02:12:09.190Z,22.27
2022-08-30T02:14:39.032Z,22.08
2022-08-30T02:17:08.950Z,22.17
2022-08-30T02:19:39.214Z,22.12
2022-08-30T02:22:09.239Z,22.24
2022-08-30T02:24:39.330Z,22.13
2022-08-30T02:27:07.801Z,22.06
2022-08-30T02:29:36.412Z,22.39
2022-08-30T02:32:05.919Z,22.54
2022-08-30T02:34:34.354Z,22.51
2022-08-30T02:37:04.930Z,22.52
2022-08-30T02:39:33.898Z,22.55
2022-08-30T02:42:06.041Z,22.43
2022-08-30T02:44:34.571Z,22.46
2022-08-30T02:47:02.409Z,22.48
2022-08-30T02:49:33.846Z,22.60
2022-08-30T02:52:05.636Z,22.55
2022-08-30T02:54:37.685Z,22.52
2022-08-30T02:57:07.774Z,22.70
2022-08-30T02:59:49.623Z,22.79
2022-08-30T03:02:18.505Z,22.73
2022-08-30T03:04:46.412Z,22.65
2022-08-30T03:07:16.158Z,22.72
2022-08-30T03:09:44.837Z,22.78
2022-08-30T03:12:15.179Z,22.73
2022-08-30T03:14:43.305Z,22.42
2022-08-30T03:17:15.544Z,22.17
2022-08-30T03:19:46.441Z,22.11
2022-08-30T03:22:15.221Z,22.00
2022-08-30T03:24:43.794Z,21.88
2022-08-30T03:27:13.099Z,21.82
2022-08-30T03:29:42.183Z,21.99
2022-08-30T03:32:10.603Z,21.87
2022-08-30T03:34:41.225Z,21.85
2022-08-30T03:37:09.405Z,21.82
2022-08-30T03:39:39.132Z,21.73
2022-08-30T03:42:07.936Z,21.68
2022-08-30T03:44:38.447Z,21.72
2022-08-30T03:47:09.748Z,21.79
2022-08-30T03:49:42.627Z,21.85
2022-08-30T03:52:11.426Z,21.85
2022-08-30T03:54:43.110Z,21.92
2022-08-30T03:57:19.647Z,22.14
2022-08-30T03:59:49.670Z,22.60
2022-08-30T04:02:18.563Z,22.79
2022-08-30T04:04:47.956Z,22.83
2022-08-30T04:07:16.836Z,22.84
2022-08-30T04:09:46.559Z,22.85
2022-08-30T04:12:14.544Z,22.89
2022-08-30T04:14:49.946Z,22.97
2022-08-30T04:17:18.404Z,22.97
2022-08-30T04:19:47.386Z,22.97
2022-08-30T04:22:16.642Z,23.05
2022-08-30T04:24:52.986Z,23.05
2022-08-30T04:27:21.488Z,23.05
2022-08-30T04:29:49.502Z,23.05
2022-08-30T04:32:18.478Z,23.13
2022-08-30T04:34:46.377Z,23.20
2022-08-30T04:37:18.772Z,23.30
2022-08-30T04:39:49.123Z,23.41
2022-08-30T04:42:18.810Z,23.48
2022-08-30T04:44:47.403Z,23.54
2022-08-30T04:47:16.337Z,23.62
2022-08-30T04:49:44.900Z,23.59
2022-08-30T04:52:14.904Z,23.67
2022-08-30T04:54:43.940Z,23.68
2022-08-30T04:57:12.402Z,23.73
2022-08-30T04:59:41.407Z,23.75
2022-08-30T05:02:13.201Z,23.80
2022-08-30T05:05:03.374Z,23.82
2022-08-30T05:07:33.380Z,23.91
2022-08-30T05:10:01.946Z,23.99
2022-08-30T05:12:31.272Z,24.01
2022-08-30T05:15:00.410Z,24.05
2022-08-30T05:17:28.629Z,24.11
2022-08-30T05:19:56.514Z,24.23
2022-08-30T05:22:24.430Z,24.30
2022-08-30T05:24:53.754Z,24.35
2022-08-30T05:27:22.368Z,24.38
2022-08-30T05:29:50.457Z,24.48
2022-08-30T05:32:19.792Z,24.69
2022-08-30T05:34:49.371Z,24.77
2022-08-30T05:37:21.519Z,24.68
2022-08-30T05:39:51.646Z,24.67
2022-08-30T05:42:20.569Z,24.85
2022-08-30T05:44:54.311Z,24.99
2022-08-30T05:47:25.418Z,24.91
2022-08-30T05:49:54.519Z,25.07
2022-08-30T05:52:22.675Z,25.17
2022-08-30T05:54:59.457Z,25.22
2022-08-30T05:57:27.433Z,25.31
2022-08-30T05:59:56.489Z,25.40
2022-08-30T06:02:24.517Z,25.50
2022-08-30T06:04:54.345Z,25.65
2022-08-30T06:07:22.994Z,25.79
2022-08-30T06:09:51.774Z,25.98
2022-08-30T06:12:22.441Z,26.16
2022-08-30T06:14:51.510Z,26.28
2022-08-30T06:17:22.042Z,26.36
2022-08-30T06:19:51.672Z,26.49
2022-08-30T06:22:21.866Z,26.61
2022-08-30T06:24:58.078Z,26.67
2022-08-30T06:27:26.342Z,26.86
2022-08-30T06:29:54.234Z,26.84
2022-08-30T06:32:21.929Z,26.88
2022-08-30T06:34:50.488Z,27.09
2022-08-30T06:37:25.590Z,27.27
2022-08-30T06:40:00.487Z,27.35
2022-08-30T06:42:32.417Z,27.29
2022-08-30T06:45:02.032Z,27.39
2022-08-30T06:47:30.917Z,27.59
2022-08-30T06:49:59.470Z,27.71
2022-08-30T06:52:27.382Z,27.85
2022-08-30T06:54:59.792Z,27.92
2022-08-30T06:57:27.656Z,27.96
2022-08-30T06:59:58.756Z,28.02
2022-08-30T07:02:27.127Z,28.05
2022-08-30T07:04:55.083Z,28.20
2022-08-30T07:07:23.489Z,28.39
2022-08-30T07:09:54.141Z,28.60
2022-08-30T07:12:22.553Z,28.86
2022-08-30T07:14:50.743Z,29.02
2022-08-30T07:17:37.111Z,29.13
2022-08-30T07:20:06.163Z,29.32
2022-08-30T07:22:34.401Z,29.53
2022-08-30T07:25:02.421Z,29.74
2022-08-30T07:27:32.007Z,29.94
2022-08-30T07:30:01.382Z,30.17
2022-08-30T07:32:29.507Z,30.23
2022-08-30T07:34:57.469Z,30.13
2022-08-30T07:37:25.791Z,30.18
2022-08-30T07:39:54.510Z,30.30
2022-08-30T07:42:22.490Z,30.41
2022-08-30T07:44:53.625Z,30.44
2022-08-30T07:47:24.021Z,30.36
2022-08-30T07:49:51.918Z,30.40
2022-08-30T07:52:19.681Z,30.52
2022-08-30T07:54:47.420Z,30.72
2022-08-30T07:57:20.658Z,30.80
2022-08-30T07:59:48.442Z,30.93
2022-08-30T08:02:16.318Z,31.06
2022-08-30T08:04:44.863Z,31.21
2022-08-30T08:07:12.985Z,31.39
2022-08-30T08:09:40.851Z,31.66
2022-08-30T08:12:09.164Z,31.66
2022-08-30T08:14:37.520Z,31.96
2022-08-30T08:17:06.357Z,32.09
2022-08-30T08:19:34.206Z,32.12
2022-08-30T08:22:20.546Z,32.31
2022-08-30T08:24:50.482Z,32.57
2022-08-30T08:27:18.461Z,32.75
2022-08-30T08:29:46.464Z,32.97
2022-08-30T08:32:15.221Z,33.30
2022-08-30T08:34:43.128Z,33.35
2022-08-30T08:37:11.105Z,33.44
2022-08-30T08:39:38.885Z,33.70
2022-08-30T08:42:36.524Z,33.82
2022-08-30T08:45:13.367Z,34.01
2022-08-30T08:48:01.395Z,34.16
2022-08-30T08:50:32.734Z,34.27
2022-08-30T08:53:50.165Z,34.35
2022-08-30T08:56:20.329Z,34.47
2022-08-30T08:58:51.906Z,34.46
2022-08-30T09:01:26.778Z,34.60
2022-08-30T09:03:57.716Z,34.66
2022-08-30T09:06:25.703Z,34.60
2022-08-30T09:08:53.784Z,34.66
2022-08-30T09:11:27.913Z,34.92
2022-08-30T09:13:56.441Z,34.87
2022-08-30T09:16:47.664Z,35.32
2022-08-30T09:19:44.248Z,35.12
2022-08-30T09:22:38.242Z,35.64
2022-08-30T09:25:23.025Z,35.61
2022-08-30T09:27:53.827Z,35.70
2022-08-30T09:30:30.117Z,35.75
2022-08-30T09:33:06.067Z,35.96
2022-08-30T09:35:44.694Z,36.03
2022-08-30T09:38:34.215Z,36.13
2022-08-30T09:41:42.900Z,35.94
2022-08-30T09:44:10.910Z,36.43
2022-08-30T09:46:51.246Z,36.17
2022-08-30T09:49:28.976Z,36.43
2022-08-30T09:52:18.608Z,36.76
2022-08-30T09:54:55.304Z,36.74
2022-08-30T09:57:58.735Z,36.82
2022-08-30T10:00:29.490Z,36.71
2022-08-30T10:03:35.357Z,36.52
2022-08-30T10:06:04.067Z,36.65
2022-08-30T10:08:51.322Z,36.81
2022-08-30T10:11:22.253Z,37.24
2022-08-30T10:14:08.781Z,37.61
2022-08-30T10:17:13.927Z,37.93
2022-08-30T10:20:12.930Z,38.18
2022-08-30T10:22:48.152Z,37.99
2022-08-30T10:25:27.345Z,38.43
2022-08-30T10:28:04.181Z,38.41
2022-08-30T10:30:36.546Z,38.42
2022-08-30T10:33:19.039Z,38.66
2022-08-30T10:35:57.882Z,38.83
2022-08-30T10:38:38.137Z,38.55
2022-08-30T10:41:29.811Z,38.67
2022-08-30T10:44:29.650Z,38.88
2022-08-30T10:47:23.207Z,38.75
2022-08-30T10:50:03.728Z,38.85
2022-08-30T10:53:02.376Z,38.75
2022-08-30T10:55:49.377Z,38.30
2022-08-30T10:58:19.370Z,38.29
2022-08-30T11:01:12.684Z,38.40
2022-08-30T11:04:17.904Z,38.49
2022-08-30T11:07:16.509Z,38.41
2022-08-30T11:10:16.866Z,38.34
2022-08-30T11:13:10.058Z,38.21
2022-08-30T11:15:57.741Z,38.13
2022-08-30T11:18:26.636Z,37.80
2022-08-30T11:21:41.728Z,37.67
2022-08-30T11:24:31.149Z,37.49
2022-08-30T11:27:01.708Z,37.40
2022-08-30T11:29:43.962Z,37.44
2022-08-30T11:32:17.471Z,37.63
2022-08-30T11:34:47.558Z,37.62
2022-08-30T11:37:37.817Z,37.71
2022-08-30T11:40:22.595Z,37.46
2022-08-30T11:43:40.514Z,37.61
2022-08-30T11:46:19.832Z,37.71
2022-08-30T11:48:54.277Z,37.10
2022-08-30T11:51:50.834Z,37.31
2022-08-30T11:54:52.751Z,37.72
2022-08-30T11:57:32.383Z,37.81
2022-08-30T12:00:41.728Z,37.86
2022-08-30T12:03:33.458Z,37.58
2022-08-30T12:06:08.499Z,37.78
2022-08-30T12:08:48.403Z,37.66
2022-08-30T12:11:17.223Z,37.99
2022-08-30T12:13:46.426Z,38.19
2022-08-30T12:16:25.314Z,38.33
2022-08-30T12:19:01.214Z,38.43
2022-08-30T12:21:44.174Z,38.70
2022-08-30T12:24:26.547Z,38.60
2022-08-30T12:26:55.192Z,39.19
2022-08-30T12:29:26.909Z,39.16
2022-08-30T12:32:03.339Z,39.65
2022-08-30T12:34:43.682Z,40.26
2022-08-30T12:37:37.318Z,40.76
2022-08-30T12:40:22.548Z,41.06
2022-08-30T12:43:04.592Z,41.15
2022-08-30T12:45:43.191Z,41.28
2022-08-30T12:48:17.753Z,42.00
2022-08-30T12:50:55.186Z,42.10
2022-08-30T12:53:31.565Z,42.38
2022-08-30T12:56:08.747Z,42.15
2022-08-30T12:58:48.027Z,42.54
2022-08-30T13:01:19.022Z,42.12
2022-08-30T13:04:14.336Z,42.10
2022-08-30T13:07:02.315Z,42.50
2022-08-30T13:09:32.677Z,42.79
2022-08-30T13:12:22.100Z,42.38
2022-08-30T13:14:50.199Z,41.89
2022-08-30T13:17:30.531Z,42.16
2022-08-30T13:20:21.457Z,42.27
2022-08-30T13:23:09.997Z,41.98
2022-08-30T13:25:39.834Z,42.24
2022-08-30T13:28:08.801Z,41.83
2022-08-30T13:30:36.879Z,41.95
2022-08-30T13:33:04.909Z,41.50
2022-08-30T13:35:34.418Z,41.00
2022-08-30T13:38:02.902Z,41.63
2022-08-30T13:40:31.195Z,41.34
2022-08-30T13:42:58.979Z,41.45
2022-08-30T13:45:42.857Z,41.06
2022-08-30T13:48:12.026Z,41.03
2022-08-30T13:50:41.393Z,41.78
2022-08-30T13:53:10.085Z,41.90
2022-08-30T13:55:41.892Z,41.85
2022-08-30T13:58:10.674Z,41.50
2022-08-30T14:00:41.895Z,40.87
2022-08-30T14:03:11.492Z,40.70
2022-08-30T14:05:50.116Z,40.41
2022-08-30T14:08:45.287Z,40.06
2022-08-30T14:11:18.683Z,39.49
2022-08-30T14:16:43.637Z,39.48
2022-08-30T14:19:14.214Z,39.03
2022-08-30T14:21:43.120Z,38.96
2022-08-30T14:24:15.534Z,38.88
2022-08-30T14:26:51.627Z,38.11
2022-08-30T14:29:30.196Z,37.80
2022-08-30T14:31:59.973Z,37.56
2022-08-30T14:34:27.925Z,37.31
2022-08-30T14:36:56.680Z,36.81
2022-08-30T14:39:26.313Z,36.71
2022-08-30T14:41:55.798Z,36.67
2022-08-30T14:44:24.964Z,36.23
2022-08-30T14:46:53.326Z,36.12
2022-08-30T14:49:21.508Z,35.93
2022-08-30T14:51:50.247Z,35.66
2022-08-30T14:54:23.421Z,35.70
2022-08-30T14:56:56.087Z,35.68
2022-08-30T14:59:25.820Z,35.45
2022-08-30T15:01:54.472Z,35.23
2022-08-30T15:04:24.413Z,35.29
2022-08-30T15:06:53.636Z,35.13
2022-08-30T15:09:23.944Z,34.94
2022-08-30T15:11:55.306Z,34.81
2022-08-30T15:14:29.209Z,34.71
2022-08-30T15:16:58.540Z,34.51
2022-08-30T15:19:26.730Z,34.47
2022-08-30T15:21:55.389Z,34.35
2022-08-30T15:24:29.623Z,34.15
2022-08-30T15:27:00.593Z,34.07
2022-08-30T15:29:30.408Z,34.05
2022-08-30T15:32:01.937Z,34.00
2022-08-30T15:34:31.854Z,34.02
2022-08-30T15:37:00.411Z,33.79
2022-08-30T15:39:29.142Z,33.69
2022-08-30T15:42:01.284Z,33.54
2022-08-30T15:44:32.606Z,33.44
2022-08-30T15:47:02.619Z,33.23
2022-08-30T15:49:30.477Z,32.99
2022-08-30T15:52:02.135Z,32.94
2022-08-30T15:54:31.491Z,32.89
2022-08-30T15:57:01.331Z,32.71
2022-08-30T15:59:31.281Z,32.60
2022-08-30T16:01:59.487Z,32.55
2022-08-30T16:04:27.939Z,32.34
2022-08-30T16:06:56.254Z,32.28
2022-08-30T16:09:32.363Z,32.24
2022-08-30T16:12:23.357Z,32.37
2022-08-30T16:14:52.090Z,32.24
2022-08-30T16:17:20.269Z,31.92
2022-08-30T16:19:48.155Z,32.00
2022-08-30T16:22:22.219Z,31.86
2022-08-30T16:24:50.382Z,31.77
2022-08-30T16:27:18.414Z,31.52
2022-08-30T16:29:50.090Z,31.45
2022-08-30T16:32:18.578Z,31.32
2022-08-30T16:34:47.626Z,31.12
2022-08-30T16:37:15.696Z,30.96
2022-08-30T16:39:46.393Z,30.91
2022-08-30T16:42:21.008Z,30.90
2022-08-30T16:44:51.223Z,30.96
2022-08-30T16:47:20.377Z,30.96
2022-08-30T16:49:48.099Z,30.86
2022-08-30T16:52:16.329Z,30.60
2022-08-30T16:54:52.116Z,30.49
2022-08-30T16:57:20.367Z,30.45
2022-08-30T16:59:50.908Z,30.24
2022-08-30T17:02:22.877Z,30.06
2022-08-30T17:04:53.076Z,29.98
2022-08-30T17:07:22.657Z,29.97
2022-08-30T17:09:51.463Z,29.88
2022-08-30T17:12:21.246Z,29.82
2022-08-30T17:14:50.744Z,29.94
2022-08-30T17:17:19.328Z,30.01
2022-08-30T17:19:50.126Z,30.12
2022-08-30T17:22:18.390Z,30.01
2022-08-30T17:24:52.337Z,30.16
2022-08-30T17:27:22.604Z,30.09
2022-08-30T17:29:51.303Z,29.91
2022-08-30T17:32:21.620Z,29.80
2022-08-30T17:37:49.261Z,29.62
2022-08-30T17:40:20.777Z,29.65
2022-08-30T17:42:49.753Z,29.61
2022-08-30T17:45:17.906Z,29.62
2022-08-30T17:47:48.164Z,29.45
2022-08-30T17:50:16.503Z,29.37
2022-08-30T17:52:51.372Z,29.23
2022-08-30T17:55:22.428Z,29.33
2022-08-30T17:57:50.910Z,29.33
2022-08-30T18:00:20.305Z,29.30
2022-08-30T18:02:49.725Z,29.14
2022-08-30T18:05:17.842Z,28.81
2022-08-30T18:07:54.147Z,28.90
2022-08-30T18:10:30.527Z,28.87
2022-08-30T18:13:06.087Z,28.54
2022-08-30T18:15:36.398Z,28.27
2022-08-30T18:18:07.114Z,28.40
2022-08-30T18:20:39.848Z,28.38
2022-08-30T18:23:12.184Z,28.51
2022-08-30T18:25:42.911Z,28.52
2022-08-30T18:28:12.509Z,28.62
2022-08-30T18:33:51.039Z,28.77
2022-08-30T18:36:21.232Z,28.77
2022-08-30T18:38:50.010Z,28.79
2022-08-30T18:41:18.089Z,28.85
2022-08-30T18:43:48.167Z,28.88
2022-08-30T18:46:25.657Z,28.81
2022-08-30T18:48:56.045Z,28.79
2022-08-30T18:51:31.140Z,28.75
2022-08-30T18:54:03.723Z,28.64
2022-08-30T18:56:33.270Z,28.74
2022-08-30T18:59:03.009Z,28.75
2022-08-30T19:01:48.741Z,28.70
2022-08-30T19:04:29.664Z,28.39
2022-08-30T19:28:46.733Z,27.90
2022-08-30T19:31:18.895Z,27.87
2022-08-30T19:33:56.884Z,27.87
2022-08-30T19:36:34.470Z,27.84
2022-08-30T19:54:19.047Z,27.67
2022-08-30T19:56:48.273Z,27.66
2022-08-30T19:59:18.229Z,27.67
2022-08-30T20:01:46.754Z,27.62
2022-08-30T20:04:16.051Z,27.58
2022-08-30T20:06:46.401Z,27.59
2022-08-30T20:09:15.413Z,27.31
2022-08-30T20:11:44.570Z,27.44
2022-08-30T20:14:13.739Z,27.53
2022-08-30T20:16:42.249Z,27.41
2022-08-30T20:19:16.166Z,27.37
2022-08-30T20:21:46.413Z,27.21
2022-08-30T20:24:16.168Z,27.20
2022-08-30T20:26:45.342Z,27.22
2022-08-30T20:29:13.995Z,27.20
2022-08-30T20:31:42.805Z,27.11
2022-08-30T20:34:12.189Z,27.25
2022-08-30T20:36:41.340Z,27.38
2022-08-30T20:39:10.508Z,27.40
2022-08-30T20:41:46.324Z,27.41
2022-08-30T20:44:18.622Z,27.45
2022-08-30T20:46:48.406Z,27.47
2022-08-30T20:49:17.852Z,27.39
2022-08-30T20:51:49.628Z,27.40
2022-08-30T20:54:24.556Z,27.46
2022-08-30T20:56:55.797Z,27.33
2022-08-30T20:59:27.886Z,27.22
2022-08-30T21:02:07.901Z,27.33
2022-08-30T21:04:39.361Z,27.39
2022-08-30T21:07:08.059Z,27.40
2022-08-30T21:09:38.755Z,27.33
2022-08-30T21:12:07.252Z,27.18
2022-08-30T21:14:38.325Z,27.24
2022-08-30T21:17:08.163Z,27.06
2022-08-30T21:19:42.023Z,27.11
2022-08-30T21:22:13.896Z,27.22
2022-08-30T21:24:43.414Z,26.99
2022-08-30T21:27:13.117Z,27.03
2022-08-30T21:29:42.018Z,26.94
2022-08-30T21:32:10.635Z,26.75
2022-08-30T21:34:59.668Z,26.74
2022-08-30T21:37:31.979Z,26.76
2022-08-30T21:40:08.359Z,26.65
2022-08-30T21:42:40.752Z,26.49
2022-08-30T21:45:10.833Z,26.44
2022-08-30T21:47:40.032Z,26.46
2022-08-30T21:50:14.609Z,26.49
2022-08-30T21:52:43.965Z,26.37
2022-08-30T21:55:13.229Z,26.40
2022-08-30T21:57:42.195Z,26.43
2022-08-30T22:00:19.521Z,26.44
2022-08-30T22:02:49.191Z,26.21
2022-08-30T22:05:23.644Z,25.93
2022-08-30T22:07:53.032Z,25.93
2022-08-30T22:10:28.105Z,25.95
2022-08-30T22:12:59.025Z,26.05
2022-08-30T22:15:28.058Z,26.06
2022-08-30T22:17:57.807Z,26.03
2022-08-30T22:20:30.376Z,26.11
2022-08-30T22:22:59.723Z,26.18
2022-08-30T22:25:29.271Z,26.32
2022-08-30T22:27:58.073Z,26.35
2022-08-30T22:30:29.175Z,26.26
2022-08-30T22:32:59.937Z,26.28
2022-08-30T22:35:28.501Z,26.39
2022-08-30T22:37:59.387Z,26.34
2022-08-30T22:40:29.441Z,26.37
2022-08-30T22:43:01.162Z,26.35
2022-08-30T22:45:31.698Z,26.30
2022-08-30T22:48:03.753Z,26.34
2022-08-30T22:50:44.133Z,26.35
2022-08-30T22:53:24.962Z,26.35
2022-08-30T22:55:59.919Z,26.31
2022-08-30T22:58:33.501Z,26.28
2022-08-30T23:01:04.296Z,26.29
2022-08-30T23:03:35.259Z,26.28
2022-08-30T23:06:07.024Z,26.31
2022-08-30T23:08:37.304Z,26.34
2022-08-30T23:11:11.530Z,26.41
2022-08-30T23:13:40.797Z,26.28
2022-08-30T23:16:11.262Z,26.36
2022-08-30T23:18:42.909Z,26.37
2022-08-30T23:21:24.476Z,26.35
2022-08-30T23:24:15.198Z,26.31
2022-08-30T23:27:06.655Z,26.31
2022-08-30T23:29:56.446Z,26.28
2022-08-30T23:32:45.349Z,26.20
2022-08-30T23:35:33.519Z,26.24
2022-08-30T23:38:25.051Z,26.32
2022-08-30T23:41:12.257Z,26.34
2022-08-30T23:44:04.257Z,26.28
2022-08-30T23:46:51.490Z,26.25
2022-08-30T23:49:39.431Z,26.21
2022-08-30T23:52:27.582Z,26.19
2022-08-30T23:55:14.589Z,26.21
2022-08-30T23:58:06.729Z,26.26
